Flight Track Log - Related Links

Times and Time Zones

All times are in EST time to prevent confusion due to time zone crossing. See the N94JB flight status page for this flight to view local times or setup timezone preferences in your user account.

Time Position Orientation Groundspeed Altitude Reporting Facility
EST Latitude Longitude Course Direction KTS MPH feet Rate Location/Type
Mon 03:48:51 PM 34.7665 -118.1646 93° East  Level FlightAware Approximate
Mon 03:56:51 PM 34.8058 -117.6822 129° Southeast  Level FlightAware Approximate
Mon 04:02:24 PM 34.7383 -117.5797 73° East 150 173 11,700  Level Los Angeles Center
Mon 04:03:24 PM 34.7494 -117.5344 80° East 144 166 12,300 600 Climbing Los Angeles Center
Mon 04:04:24 PM 34.7561 -117.4864 75° East 144 166 12,900 350 Climbing Los Angeles Center
Mon 04:05:24 PM 34.7672 -117.4361 73° East 144 166 13,000 50 Climbing Los Angeles Center
Mon 04:06:24 PM 34.7803 -117.3833 73° East 149 171 13,000  Level Los Angeles Center
Mon 04:07:24 PM 34.7933 -117.3303 72° East 149 171 13,000 200 Level Los Angeles Center
Mon 04:08:24 PM 34.8064 -117.2825 71° East 149 171 13,400 400 Climbing Los Angeles Center
Mon 04:09:24 PM 34.8214 -117.2294 72° East 149 171 13,800 500 Climbing Los Angeles Center
Mon 04:10:24 PM 34.8344 -117.1817 72° East 149 171 14,400 600 Climbing Los Angeles Center
Mon 04:11:24 PM 34.8472 -117.1336 76° East 149 171 15,000 298 Climbing Los Angeles Center
Mon 04:12:25 PM 34.8581 -117.0806 77° East 149 171 15,000  Level Los Angeles Center
Mon 04:13:25 PM 34.8692 -117.0225 75° East 160 184 15,000  Level Los Angeles Center
Mon 04:14:24 PM 34.8819 -116.9644 77° East 167 192 15,000  Level Los Angeles Center
Mon 04:15:24 PM 34.8928 -116.9089 78° East 167 192 15,000  Level Los Angeles Center
Mon 04:16:24 PM 34.9014 -116.8583 77° East 167 192 15,000  Level Los Angeles Center
Mon 04:17:24 PM 34.9122 -116.8000 75° East 167 192 15,000  Level Los Angeles Center
Mon 04:18:24 PM 34.9250 -116.7419 74° East 162 186 15,000  Level Los Angeles Center
Mon 04:19:24 PM 34.9378 -116.6889 75° East 162 186 15,000 50 Level Los Angeles Center
Mon 04:20:24 PM 34.9506 -116.6306 76° East 162 186 15,100  Climbing Los Angeles Center
Mon 04:21:24 PM 34.9633 -116.5697 63° Northeast 162 186 15,000 -50 Descending Los Angeles Center
Mon 04:22:24 PM 34.9844 -116.5194 31° Northeast 167 192 15,000 50 Level Los Angeles Center
Mon 04:23:24 PM 35.0283 -116.4867 25° Northeast 157 181 15,100 50 Climbing Los Angeles Center
Mon 04:24:24 PM 35.0681 -116.4639 52° Northeast 151 174 15,100  Level Los Angeles Center
Mon 04:25:24 PM 35.0975 -116.4183 59° Northeast 157 181 15,100  Level Los Angeles Center
Mon 04:26:24 PM 35.1225 -116.3675 51° Northeast 162 186 15,100  Level Los Angeles Center
Mon 04:27:24 PM 35.1539 -116.3194 56° Northeast 168 193 15,100  Level Los Angeles Center
Mon 04:28:24 PM 35.1792 -116.2739 45° Northeast 168 193 15,100 -50 Level Los Angeles Center
Mon 04:29:24 PM 35.2147 -116.2306 45° Northeast 174 200 15,000  Descending Los Angeles Center
Mon 04:30:24 PM 35.2439 -116.1950 41° Northeast 174 200 15,100 50 Climbing Los Angeles Center
Mon 04:31:24 PM 35.2794 -116.1569 49° Northeast 164 189 15,100  Level Los Angeles Center
Mon 04:32:24 PM 35.3106 -116.1136 59° Northeast 164 189 15,100  Level Los Angeles Center
Mon 04:33:24 PM 35.3356 -116.0628 75° East 169 194 15,100  Level Los Angeles Center
Mon 04:34:24 PM 35.3481 -116.0042 66° East 169 194 15,100  Level Los Angeles Center
Mon 04:35:24 PM 35.3689 -115.9481 68° East 169 194 15,100  Level Los Angeles Center
Mon 04:36:24 PM 35.3875 -115.8919 69° East 169 194 15,100  Level Los Angeles Center
Mon 04:37:24 PM 35.4064 -115.8308 69° East 169 194 15,100  Level Los Angeles Center
Mon 04:38:24 PM 35.4250 -115.7719 72° East 174 200 15,100  Level Los Angeles Center
Mon 04:38:47 PM 35.4311 -115.7492 45° Northeast 178 205 15,100 -100 Level Los Angeles Center
Mon 04:39:24 PM 35.4519 -115.7236 360° North 174 200 15,000 -140 Descending Los Angeles Center
Mon 04:39:30 PM 35.4539 -115.7236 38° Northeast 174 200 15,000 100 Level Los Angeles Center
Mon 04:40:24 PM 35.4936 -115.6850 41° Northeast 173 199 15,100 53 Climbing Los Angeles Center
Mon 04:41:24 PM 35.5289 -115.6467 North 173 199 15,100  Level Los Angeles Center
Mon 04:41:25 PM 35.5308 -115.6464 38° Northeast 177 204 15,100 -107 Level Los Angeles Center
Mon 04:42:20 PM 35.5683 -115.6106 90° East 175 201 15,000 -102 Descending Los Angeles Center
Mon 04:42:24 PM 35.5683 -115.6081 28° Northeast 173 199 15,000 98 Level Los Angeles Center
Mon 04:43:21 PM 35.6078 -115.5822 42° Northeast 171 197 15,100 100 Climbing Los Angeles Center
Mon 04:43:24 PM 35.6100 -115.5797 33° Northeast 173 199 15,100 -95 Level Los Angeles Center
Mon 04:44:24 PM 35.6514 -115.5461 270° West 168 193 15,000 -94 Descending Los Angeles Center
Mon 04:44:28 PM 35.6514 -115.5514 40° Northeast 172 198 15,000 92 Level Los Angeles Center
Mon 04:45:29 PM 35.6889 -115.5128 36° Northeast 175 201 15,100 52 Climbing Los Angeles Center
Mon 04:46:24 PM 35.7264 -115.4792 35° Northeast 174 200 15,100 -52 Level Los Angeles Center
Mon 04:47:25 PM 35.7678 -115.4431 37° Northeast 174 200 15,000 -47 Descending Los Angeles Center
Mon 04:48:31 PM 35.8094 -115.4042 34° Northeast 172 198 15,000  Level Los Angeles Center
Mon 04:49:26 PM 35.8467 -115.3731 36° Northeast 173 199 15,000 52 Level Los Angeles Center
Mon 04:50:27 PM 35.8839 -115.3394 35° Northeast 173 199 15,100  Climbing Los Angeles Center
Mon 04:51:28 PM 35.9233 -115.3058 35° Northeast 172 198 15,000 -45 Descending Los Angeles Center
Mon 04:52:41 PM 35.9711 -115.2642 35° Northeast 171 197 15,000  Level Los Angeles Center
Mon 04:53:30 PM 36.0044 -115.2356 38° Northeast 171 197 15,000  Level Los Angeles Center
Mon 04:54:43 PM 36.0500 -115.1914 33° Northeast 169 194 15,000 49 Level Los Angeles Center
Mon 04:55:32 PM 36.0789 -115.1681 43° Northeast 170 196 15,100  Climbing Los Angeles Center
Mon 04:56:51 PM 36.1264 -115.1133 47° Northeast 169 194 15,000  Descending Los Angeles Center
Mon 05:00:00 PM 36.2294 -114.9783 45° Northeast 171 197 15,100  Climbing Los Angeles Center
Mon 05:01:00 PM 36.2625 -114.9367 55° Northeast 165 190 15,000  Descending Los Angeles Center
Mon 05:02:00 PM 36.2892 -114.8897 45° Northeast 160 184 15,100 50 Climbing Los Angeles Center
Mon 05:03:00 PM 36.3222 -114.8481 44° Northeast 160 184 15,100  Level Los Angeles Center
Mon 05:04:00 PM 36.3572 -114.8061 40° Northeast 165 190 15,100  Level Los Angeles Center
Mon 05:05:00 PM 36.3922 -114.7697 46° Northeast 165 190 15,100  Level Los Angeles Center
Mon 05:06:00 PM 36.4250 -114.7278 52° Northeast 165 190 15,100  Level Los Angeles Center
Mon 05:07:00 PM 36.4558 -114.6781 46° Northeast 171 197 15,100  Level Los Angeles Center
Mon 05:08:00 PM 36.4886 -114.6361 38° Northeast 171 197 15,100  Level Los Angeles Center
Mon 05:09:00 PM 36.5258 -114.5994 48° Northeast 171 197 15,100  Level Los Angeles Center
Mon 05:10:00 PM 36.5586 -114.5547 49° Northeast 166 191 15,100  Level Los Angeles Center
Mon 05:11:00 PM 36.5894 -114.5103 48° Northeast 166 191 15,100  Level Los Angeles Center
Mon 05:12:00 PM 36.6222 -114.4656 44° Northeast 166 191 15,100  Level Los Angeles Center
Mon 05:13:00 PM 36.6550 -114.4261 44° Northeast 166 191 15,100  Level Los Angeles Center
Mon 05:14:00 PM 36.6878 -114.3864 46° Northeast 166 191 15,100  Level Los Angeles Center
Mon 05:15:00 PM 36.7206 -114.3444 51° Northeast 166 191 15,100  Level Los Angeles Center
Mon 05:16:00 PM 36.7492 -114.2997 44° Northeast 166 191 15,100  Level Los Angeles Center
Mon 05:17:00 PM 36.7839 -114.2575 60° Northeast 166 191 15,100 -50 Level Los Angeles Center
Mon 05:18:00 PM 36.8081 -114.2050 69° East 166 191 15,000 -50 Descending Los Angeles Center
Mon 05:19:00 PM 36.8258 -114.1475 57° Northeast 166 191 15,000  Level Los Angeles Center
Mon 05:20:00 PM 36.8522 -114.0975 50° Northeast 166 191 15,000  Level Los Angeles Center
Mon 05:21:00 PM 36.8828 -114.0525 60° Northeast 166 191 15,000  Level Los Angeles Center
Mon 05:22:00 PM 36.9069 -114.0000 66° East 171 197 15,000  Level Los Angeles Center
Mon 05:23:00 PM 36.9267 -113.9450 59° Northeast 171 197 15,000  Level Los Angeles Center
Mon 05:24:00 PM 36.9508 -113.8950 53° Northeast 171 197 15,000  Level Los Angeles Center
Mon 05:25:00 PM 36.9792 -113.8472 56° Northeast 171 197 15,000  Level Los Angeles Center
Mon 05:26:00 PM 37.0075 -113.7944 64° Northeast 171 197 15,000  Level Los Angeles Center
Mon 05:27:00 PM 37.0292 -113.7392 61° Northeast 171 197 15,000  Level Los Angeles Center
Mon 05:28:00 PM 37.0533 -113.6839 58° Northeast 166 191 15,000  Level Los Angeles Center
Mon 05:29:00 PM 37.0792 -113.6311 55° Northeast 166 191 15,000  Level Los Angeles Center
Mon 05:30:00 PM 37.1075 -113.5808 62° Northeast 166 191 15,000  Level Los Angeles Center
Mon 05:31:00 PM 37.1314 -113.5253 62° Northeast 166 191 15,000  Level Los Angeles Center
Mon 05:32:00 PM 37.1531 -113.4750 58° Northeast 166 191 15,000  Level Los Angeles Center
Mon 05:33:00 PM 37.1792 -113.4219 59° Northeast 166 191 15,000  Level Los Angeles Center
Mon 05:34:00 PM 37.2050 -113.3689 66° East 166 191 15,000  Level Los Angeles Center
Mon 05:34:25 PM 37.2131 -113.3467 60° Northeast 182 209 15,000  Level Salt Lake Center
Mon 05:35:27 PM 37.2389 -113.2911 60° Northeast 182 209 15,000  Level Salt Lake Center
Mon 05:36:30 PM 37.2642 -113.2353 60° Northeast 182 209 15,000  Level Salt Lake Center
Mon 05:37:32 PM 37.2953 -113.1681 60° Northeast 183 211 15,000  Level Salt Lake Center
Mon 05:38:34 PM 37.3217 -113.1117 60° Northeast 184 212 15,000  Level Salt Lake Center
Mon 05:39:37 PM 37.3481 -113.0539 60° Northeast 186 214 15,000  Level Salt Lake Center
Mon 05:40:39 PM 37.3744 -112.9969 60° Northeast 187 215 15,000  Level Salt Lake Center
Mon 05:41:42 PM 37.4008 -112.9403 60° Northeast 186 214 15,000  Level Salt Lake Center
Mon 05:42:44 PM 37.4275 -112.8828 60° Northeast 187 215 15,000  Level Salt Lake Center
Mon 05:43:47 PM 37.4536 -112.8250 60° Northeast 189 217 15,000  Level Salt Lake Center
Mon 05:44:49 PM 37.4850 -112.7561 60° Northeast 188 216 15,000  Level Salt Lake Center
Mon 05:45:51 PM 37.5108 -112.6994 60° Northeast 187 215 15,000  Level Salt Lake Center
Mon 05:46:54 PM 37.5367 -112.6422 60° Northeast 186 214 15,000  Level Salt Lake Center
Mon 05:47:56 PM 37.5628 -112.5856 60° Northeast 186 214 15,000  Level Salt Lake Center
Mon 05:48:58 PM 37.5889 -112.5275 60° Northeast 187 215 15,000  Level Salt Lake Center
Mon 05:50:01 PM 37.6153 -112.4692 61° Northeast 188 216 15,000  Level Salt Lake Center
Mon 05:51:03 PM 37.6414 -112.4103 60° Northeast 188 216 15,000  Level Salt Lake Center
Mon 05:52:05 PM 37.6739 -112.3400 59° Northeast 191 220 15,000  Level Salt Lake Center
Mon 05:53:08 PM 37.7014 -112.2822 61° Northeast 190 219 15,000  Level Salt Lake Center
Mon 05:54:10 PM 37.7272 -112.2228 60° Northeast 190 219 15,000  Level Salt Lake Center
Mon 05:55:12 PM 37.7539 -112.1636 59° Northeast 191 220 15,000  Level Salt Lake Center
Mon 05:56:15 PM 37.7811 -112.1069 59° Northeast 189 217 15,000  Level Salt Lake Center
Mon 05:57:17 PM 37.8089 -112.0478 61° Northeast 190 219 15,000  Level Salt Lake Center
Mon 05:58:19 PM 37.8347 -111.9886 59° Northeast 190 219 15,000  Level Salt Lake Center
Mon 05:59:21 PM 37.8608 -111.9333 59° Northeast 186 214 15,000  Level Salt Lake Center
Mon 06:00:24 PM 37.8878 -111.8775 62° Northeast 184 212 15,000  Level Salt Lake Center
Mon 06:01:27 PM 37.9181 -111.8064 61° Northeast 186 214 15,000  Level Salt Lake Center
Mon 06:02:28 PM 37.9431 -111.7481 58° Northeast 186 214 15,000  Level Salt Lake Center
Mon 06:03:30 PM 37.9703 -111.6925 59° Northeast 185 213 15,000  Level Salt Lake Center
Mon 06:04:32 PM 37.9986 -111.6317 62° Northeast 189 217 15,000  Level Salt Lake Center
Mon 06:05:34 PM 38.0247 -111.5703 61° Northeast 193 222 15,000  Level Salt Lake Center
Mon 06:06:37 PM 38.0514 -111.5103 61° Northeast 193 222 15,000  Level Salt Lake Center
Mon 06:07:39 PM 38.0778 -111.4508 59° Northeast 192 221 15,000  Level Salt Lake Center
Mon 06:08:41 PM 38.1047 -111.3944 57° Northeast 190 219 15,000  Level Salt Lake Center
Mon 06:09:43 PM 38.1306 -111.3433 58° Northeast 180 207 15,000  Level Salt Lake Center
Mon 06:10:45 PM 38.1578 -111.2883 65° Northeast 178 205 15,000  Level Salt Lake Center
Mon 06:11:47 PM 38.1817 -111.2242 62° Northeast 187 215 15,000  Level Salt Lake Center
Mon 06:12:49 PM 38.2078 -111.1614 59° Northeast 194 223 15,000  Level Salt Lake Center
Mon 06:13:51 PM 38.2425 -111.0886 59° Northeast 196 226 15,000  Level Salt Lake Center
Mon 06:14:53 PM 38.2708 -111.0281 61° Northeast 196 226 15,000  Level Salt Lake Center
Mon 06:15:56 PM 38.2975 -110.9669 59° Northeast 196 226 15,000  Level Salt Lake Center
Mon 06:16:58 PM 38.3272 -110.9033 59° Northeast 194 223 15,000  Level Salt Lake Center
Mon 06:18:00 PM 38.3528 -110.8486 59° Northeast 190 219 15,000  Level Salt Lake Center
Mon 06:19:02 PM 38.3831 -110.7850 62° Northeast 189 217 15,000  Level Salt Lake Center
Mon 06:20:04 PM 38.4067 -110.7292 61° Northeast 188 216 15,000  Level Salt Lake Center
Mon 06:21:06 PM 38.4319 -110.6703 68° East 192 221 15,000  Level Salt Lake Center
Mon 06:22:09 PM 38.4544 -110.6008 69° East 191 220 15,000  Level Salt Lake Center
Mon 06:23:11 PM 38.4733 -110.5394 67° East 191 220 15,000  Level Salt Lake Center
Mon 06:24:13 PM 38.4969 -110.4697 65° Northeast 191 220 15,000  Level Salt Lake Center
Mon 06:25:15 PM 38.5189 -110.4092 66° East 194 223 15,000  Level Salt Lake Center
Mon 06:26:17 PM 38.5436 -110.3394 68° East 195 224 15,000  Level Salt Lake Center
Mon 06:27:20 PM 38.5631 -110.2789 67° East 193 222 15,000  Level Salt Lake Center
Mon 06:28:22 PM 38.5869 -110.2083 65° Northeast 193 222 15,000  Level Salt Lake Center
Mon 06:29:24 PM 38.6086 -110.1500 66° East 192 221 15,000  Level Salt Lake Center
Mon 06:30:26 PM 38.6328 -110.0800 67° East 192 221 15,000  Level Salt Lake Center
Mon 06:31:29 PM 38.6528 -110.0183 66° East 194 223 15,000  Level Salt Lake Center
Mon 06:32:31 PM 38.6767 -109.9481 67° East 194 223 15,000 48 Level Salt Lake Center
Mon 06:33:33 PM 38.6967 -109.8875 67° East 194 223 15,100 48 Climbing Salt Lake Center
Mon 06:34:35 PM 38.7200 -109.8169 66° East 193 222 15,100  Level Salt Lake Center
Mon 06:35:38 PM 38.7408 -109.7558 66° East 194 223 15,100  Level Salt Lake Center
Mon 06:36:40 PM 38.7653 -109.6844 67° East 195 224 15,100  Level Salt Lake Center
Mon 06:37:42 PM 38.7847 -109.6244 66° East 194 223 15,100  Level Salt Lake Center
Mon 06:38:44 PM 38.8083 -109.5553 67° East 192 221 15,100  Level Salt Lake Center
Mon 06:39:46 PM 38.8278 -109.4961 67° East 190 219 15,100  Level Salt Lake Center
Mon 06:40:49 PM 38.8508 -109.4272 65° Northeast 189 217 15,100  Level Salt Lake Center
Mon 06:42:01 PM 38.8753 -109.3589 69° East 187 215 15,100  Level Denver Center
Mon 06:43:01 PM 38.8958 -109.2903 68° East 187 215 15,100  Level Denver Center
Mon 06:44:01 PM 38.9161 -109.2269 64° Northeast 187 215 15,100  Level Denver Center
Mon 06:45:01 PM 38.9361 -109.1744 70° East 187 215 15,100  Level Denver Center
Mon 06:46:01 PM 38.9542 -109.1111 64° Northeast 187 215 15,100  Level Denver Center
Mon 06:47:01 PM 38.9786 -109.0453 70° East 187 215 15,100  Level Denver Center
Mon 06:48:01 PM 38.9967 -108.9817 67° East 187 215 15,100  Level Denver Center
Mon 06:49:01 PM 39.0147 -108.9264 63° Northeast 187 215 15,100  Level Denver Center
Mon 06:50:01 PM 39.0411 -108.8603 70° East 187 215 15,100  Level Denver Center
Mon 06:51:01 PM 39.0592 -108.7969 69° East 187 215 15,100  Level Denver Center
Mon 06:52:01 PM 39.0769 -108.7358 76° East 187 215 15,100  Level Denver Center
Mon 06:53:01 PM 39.0886 -108.6747 80° East 187 215 15,100  Level Denver Center
Mon 06:54:01 PM 39.0983 -108.6028 73° East 187 215 15,100  Level Denver Center
Mon 06:55:01 PM 39.1142 -108.5364 76° East 187 215 15,100  Level Denver Center
Mon 06:56:01 PM 39.1256 -108.4778 72° East 182 209 15,100  Level Denver Center
Mon 06:57:01 PM 39.1414 -108.4142 78° East 182 209 15,100  Level Denver Center
Mon 06:58:01 PM 39.1528 -108.3447 77° East 182 209 15,100  Level Denver Center
Mon 06:59:01 PM 39.1644 -108.2808 76° East 182 209 15,100  Level Denver Center
Mon 07:00:01 PM 39.1756 -108.2222 75° East 182 209 15,100  Level Denver Center
Mon 07:01:01 PM 39.1892 -108.1583 76° East 182 209 15,100  Level Denver Center
Mon 07:02:01 PM 39.2028 -108.0861 75° East 182 209 15,100  Level Denver Center
Mon 07:03:01 PM 39.2161 -108.0222 71° East 182 209 15,100  Level Denver Center
Mon 07:04:01 PM 39.2314 -107.9661 102° East 182 209 15,100  Level Denver Center
Mon 07:05:01 PM 39.2197 -107.8936 114° Southeast 182 209 15,100  Level Denver Center
Mon 07:06:01 PM 39.1978 -107.8289 113° Southeast 189 217 15,100  Level Denver Center
Mon 07:07:01 PM 39.1775 -107.7669 110° East 195 224 15,100  Level Denver Center
Mon 07:08:01 PM 39.1617 -107.7103 112° Southeast 195 224 15,100  Level Denver Center
Mon 07:09:01 PM 39.1394 -107.6378 112° Southeast 195 224 15,100  Level Denver Center
Mon 07:10:01 PM 39.1192 -107.5731 114° Southeast 195 224 15,100  Level Denver Center
Mon 07:11:01 PM 39.0969 -107.5086 112° Southeast 195 224 15,100  Level Denver Center
Mon 07:12:01 PM 39.0786 -107.4494 111° Southeast 195 224 15,100 300 Level Denver Center
Mon 07:13:01 PM 39.0583 -107.3822 112° Southeast 190 219 15,700 550 Climbing Denver Center
Mon 07:14:01 PM 39.0381 -107.3178 115° Southeast 190 219 16,200 450 Climbing Denver Center
Mon 07:15:01 PM 39.0156 -107.2561 95° East 190 219 16,600 250 Climbing Denver Center
Mon 07:16:01 PM 39.0117 -107.1947 85° East 190 219 16,700  Climbing Denver Center
Mon 07:17:01 PM 39.0164 -107.1225 83° East 190 219 16,600 -50 Descending Denver Center
Mon 07:18:01 PM 39.0231 -107.0558 68° East 195 224 16,600  Level Denver Center
Mon 07:19:01 PM 39.0419 -106.9944 73° East 195 224 16,600  Level Denver Center
Mon 07:20:01 PM 39.0569 -106.9303 76° East 188 216 16,600  Level Denver Center
Mon 07:21:01 PM 39.0697 -106.8664 74° East 183 211 16,600 -150 Level Denver Center
Mon 07:22:01 PM 39.0844 -106.8022 74° East 183 211 16,300 -150 Descending Denver Center
Mon 07:23:01 PM 39.0992 -106.7381 68° East 183 211 16,300  Level Denver Center
Mon 07:24:01 PM 39.1181 -106.6767 69° East 183 211 16,300  Level Denver Center
Mon 07:25:01 PM 39.1369 -106.6125 67° East 183 211 16,300  Level Denver Center
Mon 07:26:01 PM 39.1578 -106.5481 69° East 188 216 16,300  Level Denver Center
Mon 07:27:01 PM 39.1767 -106.4839 69° East 188 216 16,300 50 Level Denver Center
Mon 07:28:01 PM 39.1953 -106.4222 70° East 188 216 16,400  Climbing Denver Center
Mon 07:29:01 PM 39.2142 -106.3553 67° East 188 216 16,300 -50 Descending Denver Center
Mon 07:30:01 PM 39.2350 -106.2908 77° East 188 216 16,300  Level Denver Center
Mon 07:31:01 PM 39.2472 -106.2211 81° East 188 216 16,300 -50 Level Denver Center
Mon 07:32:01 PM 39.2556 -106.1514 80° East 188 216 16,200  Descending Denver Center
Mon 07:33:01 PM 39.2636 -106.0897 79° East 183 211 16,300 50 Climbing Denver Center
Mon 07:34:01 PM 39.2739 -106.0225 74° East 183 211 16,300  Level Denver Center
Mon 07:35:01 PM 39.2903 -105.9475 77° East 201 231 16,300 -50 Level Denver Center
Mon 07:36:01 PM 39.3044 -105.8694 81° East 207 238 16,200 -300 Descending Denver Center
Mon 07:37:01 PM 39.3122 -105.8050 75° East 207 238 15,700 -800 Descending Denver Center
Mon 07:38:01 PM 39.3244 -105.7458 North 207 238 14,600 -500 Descending Denver Center
Mon 07:39:01 PM 39.3494 -105.7456 233° Southwest 207 238 14,700 -50 Climbing Denver Center
Mon 07:40:01 PM 39.3308 -105.7781 164° South 47 54 14,500 -150 Descending Denver Center
Mon 07:41:01 PM 39.2828 -105.7597 150° Southeast 120 138 14,400 650 Descending Denver Center
Mon 07:42:01 PM 39.2431 -105.7306 103° East 157 181 15,800 750 Climbing Denver Center
Mon 07:43:01 PM 39.2322 -105.6717 88° East 163 188 15,900 -100 Climbing Denver Center
Mon 07:44:01 PM 39.2339 -105.6128 70° East 168 193 15,600 200 Descending Denver Center
Mon 07:45:01 PM 39.2481 -105.5617 53° Northeast 154 177 16,300 450 Climbing Denver Center
Mon 07:46:01 PM 39.2750 -105.5156 39° Northeast 154 177 16,500 50 Climbing Denver Center
Mon 07:47:01 PM 39.3119 -105.4775 33° Northeast 160 184 16,400 -100 Descending Denver Center
Mon 07:48:01 PM 39.3472 -105.4475 40° Northeast 165 190 16,300 -300 Descending Denver Center
Mon 07:49:01 PM 39.3844 -105.4067 41° Northeast 172 198 15,800 -975 Descending Denver Center
Mon 07:50:41 PM 39.4500 -105.3333 21° North 162 186 13,700 -1,084 Descending Denver TRACON
Mon 07:51:47 PM 39.4833 -105.3167 38° Northeast 150 173 12,800 -286 Descending Denver TRACON
Mon 07:52:47 PM 39.5167 -105.2833 38° Northeast 139 160 13,100 158 Climbing Denver TRACON
Mon 07:53:41 PM 39.5500 -105.2500 49° Northeast 166 191 13,100 -474 Level Denver TRACON
Mon 07:54:41 PM 39.5833 -105.2000 57° Northeast 158 182 12,200 -800 Descending Denver TRACON
Mon 07:55:41 PM 39.6000 -105.1667 49° Northeast 156 180 11,500 -905 Descending Denver TRACON
Mon 07:56:47 PM 39.6333 -105.1167 21° North 160 184 10,300 -950 Descending Denver TRACON
Mon 07:57:41 PM 39.6667 -105.1000 14° North 153 176 9,600 -737 Descending Denver TRACON
Mon 07:58:41 PM 39.7167 -105.0833 21° North 145 167 8,900 -737 Descending Denver TRACON
Mon 07:59:35 PM 39.7500 -105.0667 21° North 151 174 8,200 -716 Descending Denver TRACON
Mon 08:00:30 PM 39.7833 -105.0500 360° North 143 165 7,600 -429 Descending Denver TRACON
Mon 08:01:41 PM 39.8167 -105.0500 360° North 114 131 7,300 -364 Descending Denver TRACON
Mon 08:02:42 PM 39.8500 -105.0500 339° North 110 127 6,800 -545 Descending Denver TRACON
Mon 08:03:42 PM 39.8833 -105.0667 323° Northwest 106 122 6,200 -400 Descending Denver TRACON
Mon 08:04:42 PM 39.9000 -105.0833 323° Northwest 72 83 6,000 -200 Descending Denver TRACON

Login

Don't have an account? Register now (free) for customized features, flight alerts, and more!